Edon, OH (43518)

12:38 PM EDT on August 28, 2016 (GMT -0400)
Edgerton | | Change Station

Elev 876 ft 41.45 °N, 84.69 °W | Updated 21 seconds ago

Mostly Cloudy
Mostly Cloudy
84.4 °F
Feels Like 94 °F
N
3.6
Wind Variable Wind from West
Gusts 4.9 mph

Today
High -- | Low -- °F
--% Chance of Precip.
Yesterday
High -- | Low -- °F
Precip. -- in
Pressure 30.22 in
Visibility 10.0 miles
Clouds Scattered Clouds 2100 ft
Mostly Cloudy 2700 ft
Mostly Cloudy 3200 ft
Heat Index 94 °F
Dew Point 77 °F
Humidity 78%
Rainfall 0.00 in
Snow Depth Not available.
7:01 AM 8:17 PM
Waning Crescent, 14% visible
METAR KANQ 281635Z AUTO VRB03KT 10SM SCT021 BKN027 BKN032 28/24 A3022 RMK
Pressure 30.22 in
Visibility 10.0 miles
Clouds Scattered Clouds 2100 ft
Mostly Cloudy 2700 ft
Mostly Cloudy 3200 ft
Heat Index 94 °F
Dew Point 77 °F
Humidity 78%
Rainfall 0.00 in
Snow Depth Not available.
7:01 AM 8:17 PM
Waning Crescent, 14% visible
METAR KANQ 281635Z AUTO VRB03KT 10SM SCT021 BKN027 BKN032 28/24 A3022 RMK

10-Day Weather Forecast

Almanac

Astronomy

Aug. 28, 2016 Rise Set
Actual Time
Civil Twilight
Nautical Twilight
Astronomical Twilight
Moon
Length of Visible Light
Length of Day
Tomorrow will be .
, % of the Moon is Illuminated

Today's Extremes

State Highs State Lows

Community

WunderPhotos

Upload Photos

1,935,621 photos uploaded!

WunderBlog® & News

Nearby

Air Quality

  Air Quality AQ Index Pollutant
Not available.

Snow Depth

Station Depth Elevation

Earthquake Activity

City Distance Mag. Time & Date
Minimum magnitude displayed is 2.5.

Coastal Water Temperatures

Place Temperature

Stations

Nearby Weather Stations

Station Location Temp. Windchill Dew Point Humidity Wind Precip. Elev Updated Type
                   

Watches & Warnings

There are currently no watches in effect.